»·PEaware :: N143VT KPSP-KGCN

N143VT :: KPSP-KGCN

FLIGHT INFORMATION

Flight Status: Arrived
Operator: Privately registered:
United States
More flights under this callsign
Pilot: Anonymous 16492 (16492)
Aircraft: BOMBARDIER BD-100 CHALLENGER 300
(CL30)
More flights by this aircraft type
Origin: KPSP Palm Springs Intl
United States
Destination: KGCN Grand Canyon Natl Park
United States
More flights between these airports :: More routes between these airports
Route: +CATH1 PSP TNP V514 GFS V210 GUCRU
File this flight plan on PilotEdge
Remarks:
Altitude:
(Current/Filed)
31,000ft
Speed:
(Current/Filed)
440kts
Departed: 30-Aug-18 04:24 PM
Arrived: 30-Aug-18 05:09 PM
Distance/Time
Traveled:
250nm/0:45
Distance/Time
To Go:
Arrived

Flight Plot

Page will automatically refresh every two minutes.

Flight plan parsing failed; only flown route is shown


Map Options




Map Legend


Flown Route
Filed Route
Departure Airport
Arrival Airport
Navaid (VOR, NDB)
Fix

Horizontal Profiles

Position Reports

Time Latitude Longitude Heading Altitude Ground
Speed
30-Aug-18 16:04 33.825352 -116.509542 90 484ft 0kts
30-Aug-18 16:05 33.825352 -116.509542 90 484ft 0kts
30-Aug-18 16:06 33.825352 -116.509542 90 484ft 0kts
30-Aug-18 16:07 33.825352 -116.509542 90 484ft 0kts
30-Aug-18 16:08 33.825352 -116.509542 90 484ft 0kts
30-Aug-18 16:09 33.825352 -116.509542 90 484ft 0kts
30-Aug-18 16:10 33.825352 -116.509542 90 484ft 0kts
30-Aug-18 16:11 33.825352 -116.509542 90 484ft 0kts
30-Aug-18 16:12 33.825352 -116.509542 90 484ft 0kts
30-Aug-18 16:13 33.825352 -116.509542 90 484ft 0kts
30-Aug-18 16:14 33.825352 -116.509542 90 484ft 0kts
30-Aug-18 16:15 33.825352 -116.509542 90 484ft 0kts
30-Aug-18 16:16 33.825353 -116.509497 87 484ft 0kts
30-Aug-18 16:17 33.825357 -116.509414 86 483ft 0kts
30-Aug-18 16:18 33.825370 -116.508095 91 483ft 9kts
30-Aug-18 16:19 33.823702 -116.504379 143 483ft 15kts
30-Aug-18 16:20 33.820540 -116.501554 143 483ft 18kts
30-Aug-18 16:21 33.818532 -116.499006 88 483ft 0kts
30-Aug-18 16:22 33.818532 -116.499006 88 483ft 0kts
30-Aug-18 16:23 33.818532 -116.499006 88 483ft 0kts
30-Aug-18 16:24 33.818535 -116.498837 86 483ft 4kts
30-Aug-18 16:25 33.826384 -116.504650 325 484ft 138kts
30-Aug-18 16:26 33.864688 -116.541340 320 4009ft 183kts
30-Aug-18 16:27 33.908774 -116.576784 358 7040ft 248kts
30-Aug-18 16:28 33.925533 -116.516878 129 8537ft 246kts
30-Aug-18 16:29 33.886012 -116.449566 123 11114ft 251kts
30-Aug-18 16:30 33.895428 -116.368891 67 13866ft 268kts
30-Aug-18 16:31 33.924715 -116.284840 66 17131ft 283kts
30-Aug-18 16:32 33.956539 -116.196608 65 20013ft 299kts
30-Aug-18 16:33 33.990540 -116.103414 64 22628ft 312kts
30-Aug-18 16:34 34.030704 -115.993684 64 22884ft 405kts
30-Aug-18 16:35 34.078538 -115.862522 64 24658ft 436kts
30-Aug-18 16:36 34.143210 -115.740521 42 26654ft 442kts
30-Aug-18 16:37 34.231576 -115.636903 39 28847ft 443kts
30-Aug-18 16:38 34.322334 -115.538849 22 30974ft 432kts
30-Aug-18 16:39 34.438007 -115.482318 15 31017ft 467kts
30-Aug-18 16:40 34.561274 -115.427363 14 31012ft 477kts
30-Aug-18 16:41 34.686994 -115.372165 14 30917ft 486kts
30-Aug-18 16:42 34.813557 -115.316595 15 30877ft 485kts
30-Aug-18 16:43 34.939271 -115.261195 14 30876ft 482kts
30-Aug-18 16:44 35.061415 -115.207242 13 30879ft 483kts
30-Aug-18 16:45 35.151753 -115.084738 61 30859ft 516kts
30-Aug-18 16:46 35.207499 -114.925846 66 30854ft 519kts
30-Aug-18 16:48 35.259084 -114.761644 67 30855ft 519kts
30-Aug-18 16:48 35.300948 -114.625326 67 30857ft 520kts
30-Aug-18 16:50 35.359448 -114.433147 67 30882ft 520kts
30-Aug-18 16:50 35.400939 -114.295992 68 31002ft 518kts
30-Aug-18 16:51 35.450543 -114.131102 68 31080ft 517kts
30-Aug-18 16:53 35.507729 -113.939858 68 31082ft 518kts
30-Aug-18 16:53 35.548710 -113.801916 68 31084ft 519kts
30-Aug-18 16:55 35.606106 -113.607700 68 30816ft 515kts
30-Aug-18 16:55 35.643394 -113.468223 72 28640ft 521kts
30-Aug-18 16:56 35.685174 -113.298372 73 26385ft 503kts
30-Aug-18 16:57 35.722449 -113.145352 77 24937ft 451kts
30-Aug-18 16:58 35.756427 -113.001257 73 24290ft 420kts
30-Aug-18 16:59 35.790734 -112.861745 73 22443ft 425kts
30-Aug-18 17:00 35.823389 -112.726155 73 19733ft 405kts
30-Aug-18 17:01 35.854160 -112.596568 73 16622ft 385kts
30-Aug-18 17:02 35.882523 -112.473627 89 13406ft 362kts
30-Aug-18 17:03 35.841361 -112.371724 126 11287ft 295kts
30-Aug-18 17:04 35.837234 -112.290307 50 9911ft 271kts
30-Aug-18 17:05 35.882484 -112.230557 40 8554ft 219kts
30-Aug-18 17:06 35.922104 -112.187728 17 7642ft 180kts
30-Aug-18 17:07 35.965019 -112.160852 28 7448ft 176kts
30-Aug-18 17:08 35.990100 -112.123087 151 7108ft 142kts
30-Aug-18 17:09 35.960620 -112.138241 220 6654ft 127kts
30-Aug-18 17:10 35.947149 -112.151280 126 6610ft 12kts
30-Aug-18 17:11 35.949561 -112.148095 41 6611ft 3kts
30-Aug-18 17:12 35.953623 -112.143809 39 6610ft 8kts
30-Aug-18 17:13 35.954212 -112.142486 41 6611ft 0kts
30-Aug-18 17:14 35.954212 -112.142486 41 6611ft 0kts
30-Aug-18 17:15 35.954212 -112.142486 41 6611ft 0kts
30-Aug-18 17:16 35.954212 -112.142486 41 6611ft 0kts
30-Aug-18 17:17 35.954212 -112.142486 41 6611ft 0kts
30-Aug-18 17:18 35.954212 -112.142486 41 6611ft 0kts
30-Aug-18 17:19 35.954212 -112.142486 41 6611ft 0kts

Navigation Log

Ident Type
Flight plan parsing failed, navigation log unavailable